createdAt,value
2019-04-29T00:04:36.948Z,2.42
2019-04-29T00:10:00.598Z,2.30
2019-04-29T00:15:37.054Z,2.30
2019-04-29T00:20:58.597Z,2.50
2019-04-29T00:26:20.371Z,2.40
2019-04-29T00:31:42.659Z,2.62
2019-04-29T00:37:15.307Z,2.55
2019-04-29T00:43:05.103Z,2.60
2019-04-29T00:48:27.012Z,2.50
2019-04-29T00:53:50.619Z,2.50
2019-04-29T00:59:12.503Z,2.58
2019-04-29T01:04:34.278Z,2.87
2019-04-29T01:09:55.627Z,2.50
2019-04-29T01:15:17.321Z,2.70
2019-04-29T01:20:38.970Z,2.50
2019-04-29T01:26:05.325Z,3.08
2019-04-29T01:31:31.344Z,2.95
2019-04-29T01:36:52.892Z,2.77
2019-04-29T01:42:21.287Z,2.70
2019-04-29T01:47:42.672Z,2.90
2019-04-29T01:53:04.465Z,3.00
2019-04-29T01:58:26.415Z,2.87
2019-04-29T02:03:48.249Z,2.90
2019-04-29T02:09:14.778Z,2.67
2019-04-29T02:14:36.559Z,2.70
2019-04-29T02:19:58.428Z,2.62
2019-04-29T02:25:25.395Z,2.77
2019-04-29T02:30:48.614Z,2.83
2019-04-29T02:36:10.333Z,2.92
2019-04-29T02:41:48.433Z,3.00
2019-04-29T02:47:10.188Z,2.85
2019-04-29T02:52:32.131Z,2.90
2019-04-29T02:58:03.116Z,3.00
2019-04-29T03:03:32.510Z,3.02
2019-04-29T03:08:54.259Z,2.90
2019-04-29T03:14:16.105Z,3.05
2019-04-29T03:19:39.662Z,2.95
2019-04-29T03:25:01.677Z,2.98
2019-04-29T03:30:23.621Z,3.30
2019-04-29T03:35:45.118Z,3.33
2019-04-29T03:41:06.673Z,2.62
2019-04-29T03:46:28.217Z,3.10
2019-04-29T03:51:49.953Z,3.00
2019-04-29T03:57:13.370Z,3.10
2019-04-29T04:02:44.901Z,3.10
2019-04-29T04:08:16.485Z,2.92
2019-04-29T04:13:38.096Z,2.85
2019-04-29T04:19:07.344Z,2.80
2019-04-29T04:24:28.994Z,2.67
2019-04-29T04:29:51.138Z,3.05
2019-04-29T04:35:13.479Z,3.77
2019-04-29T04:40:39.766Z,3.20
2019-04-29T04:46:01.718Z,3.22
2019-04-29T04:51:23.303Z,2.83
2019-04-29T04:56:44.858Z,2.55
2019-04-29T05:02:06.556Z,2.52
2019-04-29T05:07:28.126Z,2.67
2019-04-29T05:12:49.822Z,2.60
2019-04-29T05:18:11.483Z,2.77
2019-04-29T05:23:33.415Z,2.80
2019-04-29T05:28:55.298Z,2.80
2019-04-29T05:34:19.442Z,2.70
2019-04-29T05:39:41.932Z,2.62
2019-04-29T05:45:18.421Z,3.00
2019-04-29T05:51:02.183Z,2.90
2019-04-29T05:56:23.807Z,3.00
2019-04-29T06:01:47.164Z,3.40
2019-04-29T06:07:09.546Z,3.27
2019-04-29T06:12:31.234Z,2.72
2019-04-29T06:17:53.339Z,3.00
2019-04-29T06:23:14.976Z,2.92
2019-04-29T06:28:36.500Z,2.83
2019-04-29T06:34:00.567Z,1.98
2019-04-29T06:39:21.745Z,1.90
2019-04-29T06:44:44.358Z,1.80
2019-04-29T06:50:07.625Z,2.10
2019-04-29T06:55:29.478Z,1.70
2019-04-29T07:00:55.929Z,1.57
2019-04-29T07:06:15.002Z,2.00
2019-04-29T07:11:38.279Z,1.85
2019-04-29T07:17:00.777Z,1.80
2019-04-29T07:22:25.844Z,2.12
2019-04-29T07:27:47.689Z,2.20
2019-04-29T07:33:09.346Z,2.70
2019-04-29T07:38:41.068Z,1.82
2019-04-29T07:43:55.261Z,1.87
2019-04-29T07:49:18.801Z,2.37
2019-04-29T07:54:41.632Z,2.62
2019-04-29T08:00:03.562Z,2.10
2019-04-29T08:05:25.282Z,2.10
2019-04-29T08:10:55.991Z,2.62
2019-04-29T08:16:12.647Z,1.87
2019-04-29T08:21:34.331Z,2.85
2019-04-29T08:26:56.028Z,1.90
2019-04-29T08:32:17.767Z,2.35
2019-04-29T08:37:40.013Z,2.55
2019-04-29T08:43:20.693Z,2.10
2019-04-29T08:48:40.022Z,2.50
2019-04-29T08:54:01.924Z,2.62
2019-04-29T08:59:24.415Z,2.98
2019-04-29T09:04:53.373Z,2.80
2019-04-29T09:10:10.636Z,2.52
2019-04-29T09:15:32.150Z,3.00
2019-04-29T09:20:53.727Z,2.40
2019-04-29T09:26:28.455Z,2.37
2019-04-29T09:31:50.160Z,2.27
2019-04-29T09:37:12.212Z,2.27
2019-04-29T09:42:50.230Z,2.80
2019-04-29T09:48:11.309Z,3.37
2019-04-29T09:53:32.882Z,3.08
2019-04-29T09:59:14.090Z,2.80
2019-04-29T10:04:55.559Z,2.80
2019-04-29T10:10:07.830Z,3.05
2019-04-29T10:15:38.359Z,2.90
2019-04-29T10:21:06.630Z,2.80
2019-04-29T10:26:28.569Z,2.55
2019-04-29T10:31:50.523Z,2.50
2019-04-29T10:37:12.713Z,3.05
2019-04-29T10:42:40.844Z,2.85
2019-04-29T10:48:21.972Z,2.90
2019-04-29T10:53:46.663Z,2.67
2019-04-29T10:59:09.150Z,3.65
2019-04-29T11:04:36.342Z,3.33
2019-04-29T11:10:01.385Z,2.80
2019-04-29T11:15:28.825Z,2.98
2019-04-29T11:20:53.676Z,3.40
2019-04-29T11:26:28.607Z,2.62
2019-04-29T11:31:54.179Z,2.58
2019-04-29T11:37:19.459Z,2.75
2019-04-29T11:42:41.938Z,2.80
2019-04-29T11:48:03.981Z,2.77
2019-04-29T11:53:26.141Z,2.50
2019-04-29T11:59:06.852Z,3.17
2019-04-29T12:04:34.668Z,2.70
2019-04-29T12:09:56.747Z,3.20
2019-04-29T12:15:45.045Z,2.80
2019-04-29T12:21:11.815Z,3.30
2019-04-29T12:26:35.628Z,3.65
2019-04-29T12:32:14.626Z,3.20
2019-04-29T12:37:54.587Z,3.33
2019-04-29T12:43:54.027Z,3.40
2019-04-29T12:49:15.338Z,3.22
2019-04-29T12:54:36.893Z,3.60
2019-04-29T12:59:58.841Z,3.58
2019-04-29T13:05:40.476Z,4.83
2019-04-29T13:11:03.939Z,4.80
2019-04-29T13:16:55.814Z,5.03
2019-04-29T13:22:17.278Z,5.55
2019-04-29T13:27:39.608Z,5.65
2019-04-29T13:33:06.283Z,5.90
2019-04-29T13:38:25.671Z,5.97
2019-04-29T13:43:47.421Z,6.28
2019-04-29T13:49:32.301Z,6.40
2019-04-29T13:54:54.127Z,6.42
2019-04-29T14:00:36.366Z,5.75
2019-04-29T14:06:04.192Z,8.43
2019-04-29T14:11:26.052Z,6.00
2019-04-29T14:16:47.609Z,6.62
2019-04-29T14:22:21.600Z,5.72
2019-04-29T14:27:33.688Z,5.22
2019-04-29T14:33:01.747Z,4.90
2019-04-29T14:38:24.221Z,5.40
2019-04-29T14:44:12.793Z,5.67
2019-04-29T14:49:39.761Z,5.55
2019-04-29T14:55:01.978Z,6.08
2019-04-29T15:00:36.164Z,5.60
2019-04-29T15:05:58.339Z,6.53
2019-04-29T15:11:31.515Z,6.85
2019-04-29T15:16:50.248Z,7.33
2019-04-29T15:22:12.363Z,8.15
2019-04-29T15:27:33.894Z,8.55
2019-04-29T15:32:58.050Z,6.00
2019-04-29T15:38:19.016Z,6.12
2019-04-29T15:43:47.223Z,6.28
2019-04-29T15:49:05.094Z,6.35
2019-04-29T15:54:26.931Z,5.97
2019-04-29T15:59:53.883Z,6.15
2019-04-29T16:05:34.284Z,6.67
2019-04-29T16:11:15.050Z,7.15
2019-04-29T16:16:37.026Z,6.83
2019-04-29T16:21:58.819Z,7.70
2019-04-29T16:27:20.306Z,7.67
2019-04-29T16:32:42.143Z,7.28
2019-04-29T16:38:11.546Z,6.78
2019-04-29T16:43:34.232Z,7.30
2019-04-29T16:48:56.192Z,6.75
2019-04-29T16:54:20.440Z,6.60
2019-04-29T16:59:43.033Z,7.00
2019-04-29T17:05:05.496Z,6.62
2019-04-29T17:10:52.549Z,6.87
2019-04-29T17:16:16.376Z,6.53
2019-04-29T17:21:38.093Z,6.85
2019-04-29T17:27:08.105Z,7.30
2019-04-29T17:32:44.396Z,8.00
2019-04-29T17:38:04.787Z,6.75
2019-04-29T17:44:01.057Z,7.05
2019-04-29T17:49:44.946Z,7.15
2019-04-29T17:55:15.212Z,8.95
2019-04-29T18:00:59.589Z,9.80
2019-04-29T18:06:28.369Z,7.20
2019-04-29T18:11:55.637Z,8.20
2019-04-29T18:17:27.242Z,19.48
2019-04-29T18:23:00.451Z,16.45
2019-04-29T18:28:22.707Z,21.73
2019-04-29T18:33:45.162Z,21.87
2019-04-29T18:39:09.563Z,15.55
2019-04-29T18:44:32.167Z,15.30
2019-04-29T18:49:53.863Z,21.82
2019-04-29T18:55:15.401Z,21.27
2019-04-29T19:00:37.569Z,18.23
2019-04-29T19:06:03.269Z,20.17
2019-04-29T19:11:30.570Z,13.78
2019-04-29T19:16:47.452Z,25.08
2019-04-29T19:22:09.578Z,22.93
2019-04-29T19:27:37.113Z,15.63
2019-04-29T19:33:00.244Z,15.72
2019-04-29T19:38:18.872Z,14.05
2019-04-29T19:43:40.728Z,12.85
2019-04-29T19:49:08.063Z,10.82
2019-04-29T19:54:28.535Z,9.90
2019-04-29T19:59:51.595Z,10.60
2019-04-29T20:05:23.890Z,11.70
2019-04-29T20:10:52.471Z,11.03
2019-04-29T20:16:43.740Z,10.45
2019-04-29T20:22:07.551Z,10.90
2019-04-29T20:27:30.976Z,10.13
2019-04-29T20:32:56.052Z,10.05
2019-04-29T20:38:18.520Z,10.08
2019-04-29T20:43:40.570Z,9.75
2019-04-29T20:49:02.595Z,9.83
2019-04-29T20:54:26.995Z,10.35
2019-04-29T20:59:50.436Z,10.93
2019-04-29T21:05:19.789Z,11.05
2019-04-29T21:10:37.926Z,10.00
2019-04-29T21:16:15.165Z,10.10
2019-04-29T21:21:41.830Z,10.20
2019-04-29T21:27:00.830Z,10.65
2019-04-29T21:32:22.515Z,9.88
2019-04-29T21:38:00.369Z,10.13
2019-04-29T21:43:26.085Z,11.03
2019-04-29T21:48:48.014Z,11.03
2019-04-29T21:54:13.708Z,11.43
2019-04-29T21:59:33.170Z,10.75
2019-04-29T22:04:55.178Z,10.50
2019-04-29T22:10:19.829Z,9.83
2019-04-29T22:15:42.411Z,10.95
2019-04-29T22:21:06.557Z,10.70
2019-04-29T22:26:28.147Z,11.03
2019-04-29T22:31:49.983Z,10.35
2019-04-29T22:37:11.915Z,10.58
2019-04-29T22:42:41.717Z,9.78
2019-04-29T22:48:14.261Z,10.53
2019-04-29T22:53:27.335Z,10.68
2019-04-29T22:58:49.275Z,11.38
2019-04-29T23:04:14.531Z,11.03
2019-04-29T23:09:36.625Z,10.00
2019-04-29T23:14:58.545Z,10.43
2019-04-29T23:20:46.678Z,10.88
2019-04-29T23:26:08.714Z,11.08
2019-04-29T23:31:30.857Z,10.80
2019-04-29T23:36:52.807Z,10.48
2019-04-29T23:42:16.215Z,10.00
2019-04-29T23:47:41.877Z,10.80
2019-04-29T23:53:01.622Z,10.70
2019-04-29T23:58:32.643Z,10.05
